Time;durP1;ratioP1;P1;durP2;ratioP2;P2;SDS_P1;SDS_P2;PMS_P1;PMS_P2;Temp;Humidity;BMP_temperature;BMP_pressure;BME280_temperature;BME280_humidity;BME280_pressure;Samples;Min_cycle;Max_cycle;Signal;HPM_P1;HPM_P2
2023/03/27 00:00:40;;;;;;;14.25;1.58;;;3.10;99.90;;;;;;5045820;28;20182;-63
2023/03/27 00:03:05;;;;;;;9.77;1.63;;;3.00;99.90;;;;;;5030337;28;20120;-63
2023/03/27 00:05:31;;;;;;;13.23;2.30;;;3.00;99.90;;;;;;5048948;28;20115;-63
2023/03/27 00:08:00;;;;;;;8.63;1.40;;;3.00;99.90;;;;;;5042303;28;20380;-62
2023/03/27 00:10:27;;;;;;;13.48;1.80;;;3.00;99.90;;;;;;5038131;28;20059;-62
2023/03/27 00:12:53;;;;;;;13.40;1.85;;;2.90;99.90;;;;;;5042889;28;20521;-64
2023/03/27 00:15:20;;;;;;;15.88;2.10;;;2.80;99.90;;;;;;5047165;28;20124;-64
2023/03/27 00:17:48;;;;;;;7.38;1.15;;;2.80;99.90;;;;;;5046974;28;20455;-62
2023/03/27 00:20:16;;;;;;;12.23;2.08;;;2.80;99.90;;;;;;5052285;28;20033;-64
2023/03/27 00:22:42;;;;;;;12.43;1.90;;;2.70;99.90;;;;;;5042364;28;20087;-64
2023/03/27 00:25:09;;;;;;;7.10;1.08;;;2.70;99.90;;;;;;5052376;28;20150;-64
2023/03/27 00:27:35;;;;;;;7.28;2.70;;;2.60;99.90;;;;;;5052934;28;20043;-64
2023/03/27 00:30:05;;;;;;;8.27;1.35;;;2.50;99.90;;;;;;5044265;28;20033;-63
2023/03/27 00:32:31;;;;;;;11.52;1.98;;;2.50;99.90;;;;;;5047637;28;20033;-62
2023/03/27 00:34:57;;;;;;;9.55;2.80;;;2.50;99.90;;;;;;5045949;28;20491;-64
2023/03/27 00:37:22;;;;;;;8.65;1.42;;;2.40;99.90;;;;;;5048849;28;20179;-63
2023/03/27 00:39:49;;;;;;;12.23;1.80;;;2.40;99.90;;;;;;5047418;28;20033;-63
2023/03/27 00:42:21;;;;;;;12.80;1.55;;;2.40;99.90;;;;;;5045193;28;20021;-62
2023/03/27 00:44:50;;;;;;;6.07;1.27;;;2.30;99.90;;;;;;5018237;28;20066;-63
2023/03/27 00:47:19;;;;;;;10.60;1.40;;;2.20;99.90;;;;;;5046190;28;20032;-64
2023/03/27 00:49:46;;;;;;;10.50;2.03;;;2.20;99.90;;;;;;5020479;28;20041;-63
2023/03/27 00:52:13;;;;;;;3.67;1.17;;;2.10;99.90;;;;;;5044511;28;20020;-63
2023/03/27 00:54:39;;;;;;;6.32;1.27;;;2.10;99.90;;;;;;5047067;28;20025;-63
2023/03/27 00:57:08;;;;;;;10.77;1.33;;;2.00;99.90;;;;;;5046181;28;20021;-63
2023/03/27 00:59:38;;;;;;;11.73;1.40;;;2.00;99.90;;;;;;5049008;28;20427;-63
2023/03/27 01:02:05;;;;;;;11.90;1.42;;;1.90;99.90;;;;;;5046524;28;20120;-63
2023/03/27 01:04:34;;;;;;;13.65;2.05;;;1.90;99.90;;;;;;5031082;28;20095;-63
2023/03/27 01:07:02;;;;;;;28.45;3.05;;;1.90;99.90;;;;;;5043781;28;20462;-64
2023/03/27 01:09:28;;;;;;;17.00;1.83;;;1.80;99.90;;;;;;5043897;28;20108;-63
2023/03/27 01:12:09;;;;;;;9.80;2.20;;;1.80;99.90;;;;;;5046961;28;20175;-64
2023/03/27 01:15:12;;;;;;;14.30;1.33;;;1.80;99.90;;;;;;5045961;28;20650;-63
2023/03/27 01:17:44;;;;;;;13.95;2.10;;;1.80;99.90;;;;;;5035334;28;20037;-62
2023/03/27 01:20:41;;;;;;;17.05;2.10;;;1.90;99.90;;;;;;5041572;28;20037;-63
2023/03/27 01:23:43;;;;;;;16.67;2.03;;;1.90;99.90;;;;;;5038841;28;20025;-62
2023/03/27 01:26:15;;;;;;;7.05;1.67;;;1.80;99.90;;;;;;5048046;28;20036;-63
2023/03/27 01:29:03;;;;;;;8.60;1.33;;;1.80;99.90;;;;;;5050248;28;20497;-63
2023/03/27 01:32:06;;;;;;;13.65;2.67;;;1.80;99.90;;;;;;5051311;28;20025;-63
2023/03/27 01:34:58;;;;;;;10.13;1.80;;;1.80;99.90;;;;;;5048331;28;20039;-64
2023/03/27 01:37:40;;;;;;;5.72;1.63;;;1.70;99.90;;;;;;5047553;28;20025;-65
2023/03/27 01:40:12;;;;;;;18.73;1.60;;;1.70;99.90;;;;;;5047902;28;20052;-63
2023/03/27 01:42:48;;;;;;;10.88;1.67;;;1.70;99.90;;;;;;5048405;28;20033;-64
2023/03/27 01:45:22;;;;;;;4.93;1.13;;;1.80;99.90;;;;;;5043606;28;20020;-65
2023/03/27 01:48:02;;;;;;;13.50;2.30;;;1.70;99.90;;;;;;5050302;28;20104;-64
2023/03/27 01:50:34;;;;;;;18.17;1.80;;;1.80;99.90;;;;;;5049507;28;20021;-65
2023/03/27 01:53:05;;;;;;;6.18;1.55;;;1.80;99.90;;;;;;5049021;28;20047;-64
2023/03/27 01:55:37;;;;;;;14.23;1.17;;;1.80;99.90;;;;;;5042179;28;20029;-65
2023/03/27 01:58:23;;;;;;;12.63;1.70;;;1.80;99.90;;;;;;5043875;28;20067;-64
2023/03/27 02:00:53;;;;;;;8.35;1.63;;;1.80;99.90;;;;;;5049200;28;20390;-65
2023/03/27 02:03:42;;;;;;;13.07;1.85;;;1.90;99.90;;;;;;5028000;28;20049;-64
2023/03/27 02:06:12;;;;;;;15.85;1.50;;;1.90;99.90;;;;;;5040896;28;20023;-64
2023/03/27 02:08:48;;;;;;;14.85;1.70;;;1.90;99.90;;;;;;5046650;28;20171;-63
2023/03/27 02:11:14;;;;;;;17.40;1.92;;;1.80;99.90;;;;;;5044310;28;20025;-64
2023/03/27 02:13:52;;;;;;;6.30;1.02;;;1.80;99.90;;;;;;5044954;28;20082;-66
2023/03/27 02:16:22;;;;;;;9.77;1.73;;;1.80;99.90;;;;;;5046738;28;20363;-64
2023/03/27 02:18:58;;;;;;;10.48;1.67;;;1.80;99.90;;;;;;5033971;28;20151;-65
2023/03/27 02:21:24;;;;;;;11.63;1.83;;;1.70;99.90;;;;;;5032470;28;20064;-65
2023/03/27 02:23:51;;;;;;;16.77;1.95;;;1.70;99.90;;;;;;5055653;28;20043;-66
2023/03/27 02:26:17;;;;;;;7.45;1.65;;;1.70;99.90;;;;;;5037896;28;20112;-64
2023/03/27 02:28:47;;;;;;;14.27;1.20;;;1.70;99.90;;;;;;5032891;28;20033;-66
2023/03/27 02:31:39;;;;;;;16.75;2.67;;;1.60;99.90;;;;;;5037175;28;20033;-64
2023/03/27 02:34:32;;;;;;;16.92;1.75;;;1.60;99.90;;;;;;5033494;28;20442;-65
2023/03/27 02:37:20;;;;;;;13.90;1.80;;;1.60;99.90;;;;;;5047054;28;20039;-64
2023/03/27 02:40:04;;;;;;;14.15;2.17;;;1.60;99.90;;;;;;5045773;28;20150;-64
2023/03/27 02:42:39;;;;;;;;;;;1.60;99.90;;;;;;5062092;28;20076;-65
2023/03/27 02:45:15;;;;;;;13.57;1.98;;;1.60;99.90;;;;;;5049164;28;20298;-64
2023/03/27 02:48:01;;;;;;;10.35;1.35;;;1.60;99.90;;;;;;5048786;28;20021;-65
2023/03/27 02:50:38;;;;;;;10.10;1.50;;;1.70;99.90;;;;;;5046856;28;20088;-66
2023/03/27 02:53:05;;;;;;;13.57;1.80;;;1.70;99.90;;;;;;5044479;28;20012;-66
2023/03/27 02:55:37;;;;;;;8.27;1.67;;;1.60;99.90;;;;;;5044282;28;20728;-65
2023/03/27 02:58:09;;;;;;;11.27;1.92;;;1.60;99.90;;;;;;5041245;28;20162;-64
2023/03/27 03:00:40;;;;;;;9.77;1.45;;;1.60;99.90;;;;;;5042496;28;20020;-65
2023/03/27 03:03:34;;;;;;;17.20;2.25;;;1.60;99.90;;;;;;5029360;28;20028;-63
2023/03/27 03:06:05;;;;;;;12.02;2.80;;;1.50;99.90;;;;;;5047554;28;20498;-64
2023/03/27 03:08:37;;;;;;;11.13;1.67;;;1.50;99.90;;;;;;5045422;28;20720;-65
2023/03/27 03:11:05;;;;;;;16.20;2.15;;;1.50;99.90;;;;;;5044620;28;20896;-64
2023/03/27 03:13:31;;;;;;;12.43;2.15;;;1.50;99.90;;;;;;5047202;28;20029;-64
2023/03/27 03:15:57;;;;;;;9.35;1.80;;;1.40;99.90;;;;;;5046976;28;20029;-64
2023/03/27 03:18:23;;;;;;;18.23;2.45;;;1.40;99.90;;;;;;5044813;28;20021;-64
2023/03/27 03:20:52;;;;;;;8.15;1.90;;;1.40;99.90;;;;;;5048452;28;20036;-64
2023/03/27 03:23:20;;;;;;;12.30;2.20;;;1.40;99.90;;;;;;5046119;28;20078;-65
2023/03/27 03:25:49;;;;;;;10.77;2.85;;;1.40;99.90;;;;;;5046338;28;20021;-65
2023/03/27 03:28:17;;;;;;;12.70;2.55;;;1.40;99.90;;;;;;5050259;28;20040;-65
2023/03/27 03:30:46;;;;;;;19.48;3.15;;;1.30;99.90;;;;;;5049492;28;20107;-64
2023/03/27 03:33:13;;;;;;;17.55;3.13;;;1.40;99.90;;;;;;5047320;28;20032;-66
2023/03/27 03:35:39;;;;;;;18.60;3.28;;;1.40;99.90;;;;;;5042933;28;20021;-65
2023/03/27 03:38:05;;;;;;;9.82;2.25;;;1.40;99.90;;;;;;5048660;28;20021;-65
2023/03/27 03:40:31;;;;;;;19.33;3.22;;;1.40;99.90;;;;;;5045587;28;20021;-64
2023/03/27 03:42:57;;;;;;;13.15;2.17;;;1.40;99.90;;;;;;5049377;28;20025;-64
2023/03/27 03:45:22;;;;;;;15.90;3.33;;;1.40;99.90;;;;;;5048819;28;20025;-64
2023/03/27 03:47:48;;;;;;;16.42;2.70;;;1.40;99.90;;;;;;5048155;28;20044;-64
2023/03/27 03:50:13;;;;;;;14.85;3.58;;;1.40;99.90;;;;;;5046586;28;20793;-65
2023/03/27 03:52:40;;;;;;;15.55;2.85;;;1.40;99.90;;;;;;5049893;28;20422;-66
2023/03/27 03:55:07;;;;;;;13.38;2.80;;;1.40;99.90;;;;;;5048575;28;20029;-65
2023/03/27 03:57:32;;;;;;;20.85;3.13;;;1.40;99.90;;;;;;5050136;28;20013;-64
2023/03/27 03:59:58;;;;;;;23.33;3.35;;;1.30;99.90;;;;;;5047516;28;20474;-64
2023/03/27 04:02:27;;;;;;;16.85;2.95;;;1.30;99.90;;;;;;5046563;28;20024;-65
2023/03/27 04:04:59;;;;;;;14.60;2.70;;;1.20;99.90;;;;;;5032443;28;20418;-64
2023/03/27 04:07:30;;;;;;;19.15;3.42;;;1.20;99.90;;;;;;5050914;28;20501;-66
2023/03/27 04:09:58;;;;;;;18.65;2.88;;;1.20;99.90;;;;;;5049418;28;20118;-64
2023/03/27 04:12:25;;;;;;;16.67;2.40;;;1.20;99.90;;;;;;5045035;28;20500;-64
2023/03/27 04:14:51;;;;;;;8.75;2.17;;;1.20;99.90;;;;;;5046484;28;20021;-65
2023/03/27 04:17:17;;;;;;;11.35;3.13;;;1.20;99.90;;;;;;5050683;28;20512;-63
2023/03/27 04:19:45;;;;;;;10.23;3.10;;;1.20;99.90;;;;;;5043995;28;20152;-65
2023/03/27 04:22:16;;;;;;;18.63;2.92;;;1.10;99.90;;;;;;5044610;28;20090;-64
2023/03/27 04:24:43;;;;;;;20.80;4.55;;;1.10;99.90;;;;;;5048475;28;20032;-65
2023/03/27 04:27:09;;;;;;;18.38;2.72;;;1.10;99.90;;;;;;5050330;28;20025;-65
2023/03/27 04:29:35;;;;;;;11.73;4.25;;;1.00;99.90;;;;;;5048681;28;20040;-64
2023/03/27 04:32:01;;;;;;;23.20;3.08;;;1.00;99.90;;;;;;5045605;28;20021;-65
2023/03/27 04:34:26;;;;;;;14.93;3.53;;;1.00;99.90;;;;;;5047333;28;20033;-65
2023/03/27 04:36:53;;;;;;;19.85;3.25;;;0.90;99.90;;;;;;5048601;28;20083;-65
2023/03/27 04:39:18;;;;;;;13.10;3.38;;;0.90;99.90;;;;;;5049808;28;20063;-65
2023/03/27 04:41:48;;;;;;;12.95;3.08;;;0.90;99.90;;;;;;5049106;28;20021;-64
2023/03/27 04:44:17;;;;;;;12.63;3.00;;;0.80;99.90;;;;;;5051150;28;20096;-65
2023/03/27 04:46:49;;;;;;;12.85;3.20;;;0.80;99.90;;;;;;5051032;28;20108;-65
2023/03/27 04:49:19;;;;;;;16.75;3.22;;;0.80;99.90;;;;;;5049948;28;20017;-63
2023/03/27 04:51:47;;;;;;;14.90;3.72;;;0.70;99.90;;;;;;5049901;28;20029;-65
2023/03/27 04:54:13;;;;;;;17.70;3.53;;;0.70;99.90;;;;;;5050986;28;20021;-65
2023/03/27 04:56:39;;;;;;;12.70;4.10;;;0.70;99.90;;;;;;5047593;28;20029;-65
2023/03/27 04:59:05;;;;;;;28.70;3.63;;;0.70;99.90;;;;;;5046421;28;20046;-65
2023/03/27 05:01:31;;;;;;;14.55;3.42;;;0.70;99.90;;;;;;5048817;28;20441;-64
2023/03/27 05:03:56;;;;;;;10.38;2.95;;;0.70;99.90;;;;;;5030126;28;20049;-64
2023/03/27 05:06:22;;;;;;;12.98;3.33;;;0.60;99.90;;;;;;5051263;28;20029;-64
2023/03/27 05:08:49;;;;;;;15.35;3.67;;;0.60;99.90;;;;;;5048057;28;20033;-65
2023/03/27 05:11:15;;;;;;;25.92;4.43;;;0.60;99.90;;;;;;5048020;28;20025;-65
2023/03/27 05:13:40;;;;;;;9.88;2.78;;;0.60;99.90;;;;;;5047652;28;20396;-64
2023/03/27 05:16:08;;;;;;;17.05;3.70;;;0.60;99.90;;;;;;5047028;28;20475;-68
2023/03/27 05:18:34;;;;;;;18.63;3.58;;;0.60;99.90;;;;;;5042050;28;20104;-65
2023/03/27 05:21:00;;;;;;;13.13;3.08;;;0.60;99.90;;;;;;5042575;28;20040;-68
2023/03/27 05:23:26;;;;;;;11.23;3.50;;;0.60;99.90;;;;;;5047485;28;20025;-65
2023/03/27 05:25:55;;;;;;;16.73;3.80;;;0.60;99.90;;;;;;5049648;28;20037;-65
2023/03/27 05:28:21;;;;;;;14.43;3.97;;;0.60;99.90;;;;;;5041679;28;20017;-64
2023/03/27 05:30:47;;;;;;;7.75;2.80;;;0.70;99.90;;;;;;5041541;28;20049;-64
2023/03/27 05:33:15;;;;;;;9.15;2.55;;;0.70;99.90;;;;;;5041428;28;20029;-66
2023/03/27 05:35:41;;;;;;;11.18;3.35;;;0.90;99.90;;;;;;5039926;28;20124;-66
2023/03/27 05:38:07;;;;;;;12.45;2.50;;;0.90;99.90;;;;;;5035594;28;20120;-65
2023/03/27 05:40:33;;;;;;;19.65;3.03;;;1.00;99.90;;;;;;5039918;28;20033;-64
2023/03/27 05:43:00;;;;;;;10.63;3.05;;;1.10;99.90;;;;;;5042525;28;20384;-66
2023/03/27 05:45:26;;;;;;;16.35;2.92;;;1.20;99.90;;;;;;5041610;28;20502;-65
2023/03/27 05:47:54;;;;;;;16.45;3.13;;;1.30;99.90;;;;;;5050228;28;20406;-65
2023/03/27 05:50:24;;;;;;;10.88;3.58;;;1.30;99.90;;;;;;5049084;28;20502;-64
2023/03/27 05:52:57;;;;;;;8.80;2.55;;;1.30;99.90;;;;;;5051207;28;20021;-65
2023/03/27 05:55:24;;;;;;;8.88;2.78;;;1.40;99.90;;;;;;5047981;28;20025;-66
2023/03/27 05:57:50;;;;;;;12.60;2.80;;;1.40;99.90;;;;;;5049716;28;20051;-65
2023/03/27 06:00:20;;;;;;;15.35;3.13;;;1.40;99.90;;;;;;5045553;28;20032;-65
2023/03/27 06:02:48;;;;;;;10.48;2.72;;;1.50;99.90;;;;;;5046762;28;20119;-65
2023/03/27 06:05:15;;;;;;;11.32;2.28;;;1.50;99.90;;;;;;5023098;28;20077;-65
2023/03/27 06:07:41;;;;;;;5.35;2.13;;;1.60;99.90;;;;;;5044787;28;20148;-65
2023/03/27 06:10:09;;;;;;;14.95;3.10;;;1.80;99.90;;;;;;5039586;28;20174;-64
2023/03/27 06:12:35;;;;;;;8.23;2.72;;;2.30;99.90;;;;;;5047254;28;20025;-65
2023/03/27 06:15:03;;;;;;;12.70;2.88;;;2.60;99.90;;;;;;5045247;28;20032;-65
2023/03/27 06:17:29;;;;;;;9.35;2.20;;;3.00;99.90;;;;;;5043078;28;20036;-64
2023/03/27 06:19:55;;;;;;;14.85;2.10;;;3.50;99.90;;;;;;5048279;28;20086;-65
2023/03/27 06:22:21;;;;;;;13.63;1.88;;;3.50;99.90;;;;;;5044130;28;20048;-65
2023/03/27 06:24:47;;;;;;;8.88;2.25;;;3.50;99.90;;;;;;5043984;28;20462;-65
2023/03/27 06:27:13;;;;;;;9.02;2.60;;;3.70;99.90;;;;;;5045305;28;20021;-65
2023/03/27 06:29:39;;;;;;;8.93;2.17;;;3.70;99.90;;;;;;5044481;28;20057;-66
2023/03/27 06:32:05;;;;;;;5.85;1.88;;;4.00;99.90;;;;;;5042017;28;20021;-66
2023/03/27 06:34:30;;;;;;;11.30;2.35;;;3.90;99.90;;;;;;5044951;28;20025;-66
2023/03/27 06:36:58;;;;;;;7.68;1.90;;;3.90;99.90;;;;;;5047523;28;20037;-65
2023/03/27 06:39:26;;;;;;;8.20;2.78;;;3.80;99.90;;;;;;5047117;28;20497;-65
2023/03/27 06:41:52;;;;;;;8.25;2.00;;;4.00;99.90;;;;;;5048628;28;20059;-65
2023/03/27 06:44:17;;;;;;;7.78;2.00;;;4.10;99.90;;;;;;5043147;28;20099;-65
2023/03/27 06:46:43;;;;;;;9.40;2.55;;;4.20;99.90;;;;;;5046504;28;20029;-66
2023/03/27 06:49:09;;;;;;;12.90;2.35;;;4.40;99.90;;;;;;5047905;28;20017;-65
2023/03/27 06:51:34;;;;;;;11.52;2.65;;;5.00;99.90;;;;;;5046317;28;20049;-65
2023/03/27 06:54:00;;;;;;;9.35;2.00;;;5.00;99.90;;;;;;5043979;28;20026;-65
2023/03/27 06:56:26;;;;;;;10.68;2.55;;;4.70;99.90;;;;;;5040445;28;20156;-65
2023/03/27 06:58:51;;;;;;;12.25;2.13;;;4.60;99.90;;;;;;5045336;28;20060;-66
2023/03/27 07:01:17;;;;;;;8.75;2.67;;;4.50;99.90;;;;;;5041182;28;20486;-64
2023/03/27 07:03:42;;;;;;;12.02;2.47;;;4.20;99.90;;;;;;5031129;28;20044;-64
2023/03/27 07:06:08;;;;;;;18.00;2.55;;;4.50;99.90;;;;;;5042978;28;20033;-66
2023/03/27 07:08:33;;;;;;;8.38;2.33;;;4.40;99.90;;;;;;5043402;28;20036;-66
2023/03/27 07:10:59;;;;;;;4.90;2.35;;;4.50;99.90;;;;;;5044468;28;20029;-65
2023/03/27 07:13:25;;;;;;;10.50;2.20;;;4.50;99.90;;;;;;5040628;28;20124;-66
2023/03/27 07:15:50;;;;;;;12.45;2.75;;;4.40;99.90;;;;;;5042990;28;20029;-66
2023/03/27 07:18:16;;;;;;;9.85;2.40;;;4.60;99.90;;;;;;5042095;28;20044;-65
2023/03/27 07:20:43;;;;;;;13.48;3.05;;;4.50;99.90;;;;;;5042722;28;20041;-64
2023/03/27 07:23:10;;;;;;;10.02;2.13;;;4.90;99.90;;;;;;5047894;28;20025;-63
2023/03/27 07:25:36;;;;;;;14.50;3.10;;;5.30;99.90;;;;;;5044241;28;20056;-66
2023/03/27 07:28:14;;;;;;;7.80;2.10;;;5.30;99.90;;;;;;5051111;28;20529;-66
2023/03/27 07:30:40;;;;;;;13.52;2.88;;;5.40;99.90;;;;;;5048593;28;20033;-65
2023/03/27 07:33:08;;;;;;;6.30;2.08;;;5.60;99.90;;;;;;5047208;28;20546;-65
2023/03/27 07:35:39;;;;;;;18.25;3.25;;;5.40;99.90;;;;;;5051662;28;20021;-65
2023/03/27 07:38:05;;;;;;;8.18;2.70;;;5.10;99.90;;;;;;5051092;28;20052;-64
2023/03/27 07:40:32;;;;;;;6.45;3.03;;;5.30;99.90;;;;;;5052339;28;20616;-66
2023/03/27 07:42:58;;;;;;;10.07;2.92;;;5.20;99.90;;;;;;5048960;28;20029;-66
2023/03/27 07:45:23;;;;;;;7.95;2.10;;;5.90;99.90;;;;;;5047506;28;20040;-64
2023/03/27 07:47:49;;;;;;;6.20;2.05;;;6.60;99.90;;;;;;5048520;28;20087;-66
2023/03/27 07:50:17;;;;;;;8.50;2.42;;;6.90;99.90;;;;;;5051949;28;20028;-65
2023/03/27 07:52:44;;;;;;;8.38;2.35;;;6.80;99.90;;;;;;5053043;28;20029;-65
2023/03/27 07:55:13;;;;;;;6.65;1.70;;;6.60;99.90;;;;;;5047153;28;20021;-65
2023/03/27 07:57:43;;;;;;;6.05;2.00;;;6.70;99.90;;;;;;5058537;28;20457;-66
2023/03/27 08:00:13;;;;;;;3.63;1.90;;;6.80;99.90;;;;;;5047025;28;20040;-66
2023/03/27 08:02:40;;;;;;;5.13;2.00;;;7.10;99.90;;;;;;5049269;28;20104;-66
2023/03/27 08:05:07;;;;;;;7.30;2.20;;;8.00;99.90;;;;;;5027789;28;20580;-65
2023/03/27 08:07:34;;;;;;;8.15;2.08;;;8.70;99.90;;;;;;5054064;28;20079;-66
2023/03/27 08:10:00;;;;;;;6.57;2.05;;;9.40;99.90;;;;;;5047046;28;20031;-66
2023/03/27 08:12:25;;;;;;;5.20;2.33;;;9.50;99.90;;;;;;5053985;28;20017;-65
2023/03/27 08:14:53;;;;;;;7.65;2.30;;;9.90;98.50;;;;;;5053326;28;20052;-66
2023/03/27 08:17:18;;;;;;;5.55;1.85;;;9.70;99.30;;;;;;5052154;28;20024;-65
2023/03/27 08:19:45;;;;;;;9.52;2.17;;;9.60;99.10;;;;;;5022463;28;20383;-65
2023/03/27 08:22:11;;;;;;;7.00;1.67;;;9.80;97.90;;;;;;5044688;28;20040;-65
2023/03/27 08:24:36;;;;;;;4.35;2.60;;;10.80;97.90;;;;;;5048614;28;20029;-64
2023/03/27 08:27:02;;;;;;;7.75;2.00;;;12.00;96.30;;;;;;5053396;28;20394;-67
2023/03/27 08:29:28;;;;;;;6.57;1.67;;;12.40;93.90;;;;;;5047103;28;20022;-66
2023/03/27 08:31:53;;;;;;;6.88;1.65;;;12.20;94.00;;;;;;5047225;28;20041;-67
2023/03/27 08:34:19;;;;;;;6.40;2.05;;;12.40;91.60;;;;;;5053126;28;20028;-65
2023/03/27 08:36:45;;;;;;;5.35;1.58;;;11.60;93.10;;;;;;5045282;28;20522;-66
2023/03/27 08:39:11;;;;;;;6.00;1.85;;;11.60;93.20;;;;;;5046892;28;20025;-66
2023/03/27 08:41:41;;;;;;;8.27;1.60;;;11.00;93.30;;;;;;5050903;28;20035;-66
2023/03/27 08:44:14;;;;;;;6.47;1.45;;;10.20;94.10;;;;;;5046648;28;20048;-65
2023/03/27 08:46:50;;;;;;;7.07;2.13;;;10.10;94.30;;;;;;5049978;28;20029;-66
2023/03/27 08:49:17;;;;;;;3.67;1.30;;;10.60;93.80;;;;;;5047854;28;20481;-65
2023/03/27 08:51:59;;;;;;;4.78;1.70;;;11.40;93.00;;;;;;5051055;28;20124;-66
2023/03/27 08:54:29;;;;;;;5.22;1.83;;;11.10;90.20;;;;;;5047608;28;20036;-66
2023/03/27 08:56:56;;;;;;;5.10;1.40;;;10.30;91.90;;;;;;5038195;28;20016;-65
2023/03/27 08:59:25;;;;;;;9.52;1.75;;;9.10;95.00;;;;;;5050535;28;20029;-66
2023/03/27 09:01:53;;;;;;;3.60;1.75;;;8.80;94.90;;;;;;5047796;28;20026;-66
2023/03/27 09:04:25;;;;;;;5.25;1.02;;;8.00;96.30;;;;;;5028615;28;20207;-65
2023/03/27 09:07:02;;;;;;;6.32;0.95;;;7.30;97.80;;;;;;5047215;28;20632;-65
2023/03/27 09:10:05;;;;;;;5.15;1.25;;;7.00;99.90;;;;;;5048699;28;20024;-66
2023/03/27 09:12:49;;;;;;;5.38;1.00;;;6.80;99.90;;;;;;5063199;28;20398;-65
2023/03/27 09:15:35;;;;;;;;;;;7.80;99.90;;;;;;5048689;28;20235;-65
2023/03/27 09:18:12;;;;;;;6.50;1.10;;;8.90;99.90;;;;;;5050130;28;19909;-65
2023/03/27 09:20:58;;;;;;;2.72;1.10;;;9.80;97.20;;;;;;5048755;28;20159;-65
2023/03/27 09:23:40;;;;;;;3.20;1.33;;;9.70;93.70;;;;;;5021905;28;20043;-64
2023/03/27 09:26:17;;;;;;;3.00;1.02;;;8.80;94.80;;;;;;5051011;28;20021;-64
2023/03/27 09:28:50;;;;;;;6.85;1.38;;;8.10;97.40;;;;;;5051323;28;20565;-64
2023/03/27 09:31:49;;;;;;;3.23;1.00;;;7.50;98.50;;;;;;5042699;28;20506;-64
2023/03/27 09:34:22;;;;;;;7.75;1.10;;;7.20;99.90;;;;;;5034176;28;20498;-65
2023/03/27 09:36:48;;;;;;;4.78;0.95;;;6.70;99.90;;;;;;5051381;28;20024;-66
2023/03/27 09:39:20;;;;;;;3.72;1.00;;;6.60;99.90;;;;;;5049573;28;20017;-66
2023/03/27 09:42:25;;;;;;;3.83;1.00;;;6.80;99.90;;;;;;5050133;28;20017;-65
2023/03/27 09:44:55;;;;;;;4.80;0.82;;;6.80;99.90;;;;;;5043320;28;20033;-65
2023/03/27 09:47:37;;;;;;;5.18;0.93;;;7.00;99.90;;;;;;5046264;28;20037;-64
2023/03/27 09:50:27;;;;;;;3.50;0.90;;;7.30;98.80;;;;;;5045178;28;20032;-66
2023/03/27 09:53:06;;;;;;;5.20;1.10;;;7.50;99.60;;;;;;5046927;28;20025;-65
2023/03/27 09:55:33;;;;;;;4.72;1.17;;;7.40;98.90;;;;;;5046194;28;20052;-66
2023/03/27 09:58:24;;;;;;;9.82;1.70;;;7.50;99.00;;;;;;5046287;28;20025;-65
2023/03/27 10:01:12;;;;;;;7.90;1.10;;;7.10;99.90;;;;;;5050253;28;20298;-65
2023/03/27 10:03:58;;;;;;;3.50;0.75;;;6.80;99.90;;;;;;5046838;28;20104;-66
2023/03/27 10:06:29;;;;;;;7.97;1.23;;;6.70;99.90;;;;;;5029163;28;20048;-64
2023/03/27 10:08:59;;;;;;;9.00;1.33;;;7.00;99.90;;;;;;5047016;28;20032;-65
2023/03/27 10:11:30;;;;;;;3.70;0.98;;;7.70;99.90;;;;;;5048101;28;20013;-65
2023/03/27 10:13:58;;;;;;;8.57;1.70;;;8.30;99.00;;;;;;5046317;28;20502;-65
2023/03/27 10:16:24;;;;;;;3.53;1.10;;;8.90;96.40;;;;;;5050576;28;20017;-67
2023/03/27 10:18:54;;;;;;;3.20;1.10;;;9.30;95.60;;;;;;5046241;28;20036;-65
2023/03/27 10:21:25;;;;;;;2.70;1.00;;;9.70;93.90;;;;;;5045036;28;20025;-66
2023/03/27 10:24:03;;;;;;;7.55;1.70;;;9.50;94.50;;;;;;5039899;28;20030;-66
2023/03/27 10:26:31;;;;;;;3.85;1.50;;;10.00;94.00;;;;;;5045580;28;20051;-67
2023/03/27 10:29:19;;;;;;;5.95;1.63;;;10.10;93.20;;;;;;5062534;28;20438;-65
2023/03/27 10:31:53;;;;;;;7.25;1.60;;;10.20;94.70;;;;;;5044087;28;20021;-65
2023/03/27 10:34:36;;;;;;;4.70;1.33;;;10.50;95.00;;;;;;5044455;28;20111;-64
2023/03/27 10:37:16;;;;;;;3.95;1.23;;;10.60;93.40;;;;;;5043956;28;20227;-64
2023/03/27 10:39:45;;;;;;;2.83;1.80;;;10.70;92.60;;;;;;5044344;28;20063;-64
2023/03/27 10:42:13;;;;;;;3.05;1.17;;;10.30;92.60;;;;;;5046114;28;20036;-65
2023/03/27 10:44:40;;;;;;;4.63;1.55;;;10.10;92.20;;;;;;5041659;28;20471;-65
2023/03/27 10:47:19;;;;;;;3.50;1.65;;;10.50;91.70;;;;;;5038772;28;20033;-65
2023/03/27 10:50:01;;;;;;;7.47;1.52;;;10.50;91.40;;;;;;5041022;28;20041;-65
2023/03/27 10:52:52;;;;;;;9.52;1.63;;;10.40;91.00;;;;;;5051995;28;20020;-65
2023/03/27 10:55:53;;;;;;;7.00;2.03;;;10.10;91.70;;;;;;5046256;28;20029;-66
2023/03/27 10:58:48;;;;;;;6.82;1.30;;;9.30;92.70;;;;;;5015148;28;20099;-65
2023/03/27 11:01:27;;;;;;;4.13;1.02;;;8.70;94.30;;;;;;5038687;28;20041;-66
2023/03/27 11:04:15;;;;;;;6.32;1.40;;;7.60;99.90;;;;;;5047730;28;20025;-65
2023/03/27 11:06:43;;;;;;;2.95;0.98;;;6.70;99.90;;;;;;5028696;28;20498;-66
2023/03/27 11:09:25;;;;;;;9.57;2.42;;;5.90;99.90;;;;;;5045884;28;20150;-66
2023/03/27 11:11:59;;;;;;;6.13;1.38;;;5.60;99.90;;;;;;5045406;28;20128;-64
2023/03/27 11:14:30;;;;;;;7.95;1.70;;;5.40;99.90;;;;;;5042165;28;20025;-66
2023/03/27 11:16:59;;;;;;;7.45;3.13;;;5.30;99.90;;;;;;5043885;28;20203;-66
2023/03/27 11:20:05;;;;;;;8.60;1.83;;;5.40;99.90;;;;;;5045567;28;20122;-66
2023/03/27 11:22:38;;;;;;;7.60;2.35;;;5.60;99.90;;;;;;5004332;28;20022;-66
2023/03/27 11:25:17;;;;;;;2.97;1.52;;;5.70;99.90;;;;;;5042382;28;20040;-65
2023/03/27 11:27:53;;;;;;;5.35;2.30;;;5.90;99.90;;;;;;5047913;28;20513;-64
2023/03/27 11:30:45;;;;;;;8.63;2.05;;;6.00;99.90;;;;;;5043487;28;20021;-64
2023/03/27 11:33:44;;;;;;;8.40;2.20;;;6.10;99.90;;;;;;5037338;28;20094;-66
2023/03/27 11:36:29;;;;;;;6.68;2.30;;;6.40;99.90;;;;;;5042096;28;20115;-65
2023/03/27 11:39:01;;;;;;;;;;;6.70;99.90;;;;;;5046860;28;20039;-65
2023/03/27 11:41:26;;;;;;;4.20;1.40;;;7.00;99.90;;;;;;5051007;28;19908;-66
2023/03/27 11:43:52;;;;;;;11.27;1.60;;;7.10;99.90;;;;;;5048510;28;20033;-65
2023/03/27 11:46:27;;;;;;;5.40;1.55;;;7.40;99.90;;;;;;5045762;28;20059;-65
2023/03/27 11:49:26;;;;;;;7.43;2.30;;;7.60;99.90;;;;;;5047971;28;20051;-65
2023/03/27 11:52:24;;;;;;;8.23;2.70;;;7.60;99.90;;;;;;5045574;28;20056;-66
2023/03/27 11:55:05;;;;;;;7.82;1.75;;;7.50;99.90;;;;;;5040168;28;20090;-66
2023/03/27 11:57:46;;;;;;;2.35;0.90;;;6.90;99.90;;;;;;5047822;28;20051;-65
2023/03/27 12:00:24;;;;;;;3.45;1.20;;;6.00;99.90;;;;;;5051073;28;20029;-64
2023/03/27 12:03:18;;;;;;;4.90;1.58;;;5.60;99.90;;;;;;5042239;28;20032;-66
2023/03/27 12:06:13;;;;;;;4.97;2.70;;;5.10;99.90;;;;;;5015534;28;20036;-64
2023/03/27 12:08:44;;;;;;;3.28;1.67;;;4.90;99.90;;;;;;5051012;28;20033;-65
2023/03/27 12:11:13;;;;;;;2.47;1.35;;;5.00;99.90;;;;;;5043903;28;20518;-65
2023/03/27 12:13:57;;;;;;;3.92;1.35;;;5.30;99.90;;;;;;5048273;28;20414;-64
2023/03/27 12:16:44;;;;;;;6.82;1.35;;;5.30;99.90;;;;;;5048110;28;20047;-65
2023/03/27 12:19:51;;;;;;;6.88;1.23;;;5.30;99.90;;;;;;5046436;28;20721;-65
2023/03/27 12:22:26;;;;;;;3.72;0.98;;;5.10;99.90;;;;;;5053255;28;20379;-65
2023/03/27 12:24:59;;;;;;;2.55;1.25;;;5.10;99.90;;;;;;5049121;28;20021;-64
2023/03/27 12:27:43;;;;;;;2.30;1.00;;;5.30;99.90;;;;;;5055213;28;20362;-65
2023/03/27 12:30:12;;;;;;;1.67;0.90;;;5.60;99.90;;;;;;5050277;28;20534;-65
2023/03/27 12:33:35;;;;;;;4.50;1.23;;;5.70;99.90;;;;;;5046504;28;20040;-65
2023/03/27 12:36:05;;;;;;;6.68;1.33;;;5.80;99.90;;;;;;5037841;28;20044;-66
2023/03/27 12:38:35;;;;;;;2.25;0.85;;;5.60;99.90;;;;;;5014634;28;20032;-67
2023/03/27 12:41:18;;;;;;;5.22;1.02;;;5.70;99.90;;;;;;5042711;28;20129;-66
2023/03/27 12:43:46;;;;;;;5.17;0.80;;;5.60;99.90;;;;;;5051096;28;20037;-66
2023/03/27 12:46:29;;;;;;;2.53;1.00;;;5.70;99.90;;;;;;5041904;28;20017;-65
2023/03/27 12:49:07;;;;;;;1.35;0.90;;;5.70;99.90;;;;;;5051570;28;20040;-66
2023/03/27 12:51:37;;;;;;;9.40;0.90;;;5.80;99.90;;;;;;5052071;28;20432;-65
2023/03/27 12:54:25;;;;;;;2.75;0.95;;;5.90;99.90;;;;;;5048726;28;20474;-66
2023/03/27 12:57:04;;;;;;;1.70;0.90;;;6.00;99.90;;;;;;5046789;28;20158;-66
2023/03/27 12:59:47;;;;;;;3.45;1.25;;;6.10;99.90;;;;;;5043754;28;20032;-67
2023/03/27 13:02:34;;;;;;;4.05;1.10;;;6.00;99.90;;;;;;5049120;28;20032;-65
2023/03/27 13:05:09;;;;;;;6.53;1.08;;;6.20;99.90;;;;;;5049018;28;20033;-65
2023/03/27 13:07:53;;;;;;;12.27;1.65;;;6.20;99.90;;;;;;5030650;28;20422;-66
2023/03/27 13:10:25;;;;;;;2.42;0.82;;;6.20;99.90;;;;;;5051341;28;20028;-66
2023/03/27 13:13:28;;;;;;;3.22;0.75;;;6.20;99.90;;;;;;5037130;28;20059;-66
2023/03/27 13:16:04;;;;;;;6.22;1.33;;;6.30;99.90;;;;;;5043960;28;20044;-66
2023/03/27 13:18:54;;;;;;;9.05;1.20;;;6.30;99.90;;;;;;5044130;28;20025;-64
2023/03/27 13:21:59;;;;;;;1.15;0.70;;;6.30;99.90;;;;;;5042738;28;20025;-65